Time;durP1;ratioP1;P1;durP2;ratioP2;P2;SDS_P1;SDS_P2;PMS_P1;PMS_P2;Temp;Humidity;BMP_temperature;BMP_pressure;BME280_temperature;BME280_humidity;BME280_pressure;Samples;Min_cycle;Max_cycle;Signal;HPM_P1;HPM_P2
2022/05/08 00:01:18;;;;;;;0.40;0.30;;;;;;;13.74;91.25;100853.66;5013437;28;20469;-53
2022/05/08 00:03:45;;;;;;;0.40;0.37;;;;;;;13.54;91.23;100848.94;5010467;28;20900;-53
2022/05/08 00:06:12;;;;;;;0.30;0.20;;;;;;;13.23;93.86;100852.56;5010863;28;20484;-52
2022/05/08 00:08:38;;;;;;;0.30;0.20;;;;;;;13.11;94.61;100839.56;5006815;28;20484;-52
2022/05/08 00:11:06;;;;;;;0.40;0.40;;;;;;;13.27;93.75;100840.88;5005915;28;20458;-53
2022/05/08 00:13:35;;;;;;;0.40;0.27;;;;;;;13.13;93.87;100843.06;5012202;28;20452;-53
2022/05/08 00:16:03;;;;;;;0.40;0.30;;;;;;;13.06;94.06;100844.19;5004518;28;20458;-52
2022/05/08 00:18:30;;;;;;;0.40;0.30;;;;;;;13.31;93.89;100842.56;5008901;28;20480;-52
2022/05/08 00:20:57;;;;;;;0.40;0.30;;;;;;;13.18;94.54;100833.16;5011925;28;20587;-52
2022/05/08 00:23:23;;;;;;;0.40;0.40;;;;;;;13.06;94.08;100830.84;5004606;28;20473;-52
2022/05/08 00:25:50;;;;;;;0.40;0.20;;;;;;;13.06;95.20;100830.84;5013165;28;20457;-52
2022/05/08 00:28:17;;;;;;;0.30;0.30;;;;;;;13.05;94.68;100827.28;5013006;28;20457;-52
2022/05/08 00:30:43;;;;;;;0.30;0.20;;;;;;;13.11;94.20;100822.69;5013232;28;20448;-52
2022/05/08 00:33:10;;;;;;;0.30;0.20;;;;;;;13.24;93.88;100822.28;5012040;28;20480;-52
2022/05/08 00:35:37;;;;;;;1.40;1.40;;;;;;;13.05;94.63;100821.94;5012880;28;20445;-52
2022/05/08 00:38:03;;;;;;;0.30;0.20;;;;;;;12.77;95.13;100826.34;5017615;28;20520;-52
2022/05/08 00:40:35;;;;;;;0.47;0.33;;;;;;;12.74;95.46;100826.41;5003039;28;20957;-52
2022/05/08 00:43:28;;;;;;;0.63;0.63;;;;;;;12.82;95.33;100826.22;4999031;28;20469;-52
2022/05/08 00:45:55;;;;;;;0.30;0.20;;;;;;;12.84;95.83;100821.69;5012598;28;20835;-52
2022/05/08 00:48:22;;;;;;;0.40;0.40;;;;;;;12.50;97.43;100830.69;5012496;28;20945;-52
2022/05/08 00:50:51;;;;;;;0.30;0.20;;;;;;;12.53;96.96;100827.94;5010936;28;20870;-52
2022/05/08 00:53:19;;;;;;;0.30;0.20;;;;;;;12.77;97.21;100826.34;5000953;28;20873;-52
2022/05/08 00:55:46;;;;;;;0.40;0.30;;;;;;;12.68;97.13;100824.81;5012582;28;20837;-52
2022/05/08 00:58:14;;;;;;;0.40;0.30;;;;;;;12.55;97.40;100827.88;5012167;28;20542;-52
2022/05/08 01:00:41;;;;;;;0.83;0.83;;;;;;;12.59;97.07;100821.53;5009789;28;20900;-52
2022/05/08 01:03:08;;;;;;;1.17;1.07;;;;;;;12.66;96.01;100820.44;5001536;28;20468;-52
2022/05/08 01:05:41;;;;;;;0.30;0.20;;;;;;;12.67;96.85;100819.53;5011552;28;20828;-52
2022/05/08 01:08:09;;;;;;;0.80;0.80;;;;;;;12.64;97.03;100812.50;5001168;28;20514;-52
2022/05/08 01:10:37;;;;;;;0.83;0.83;;;;;;;12.70;96.36;100822.97;5012436;28;20455;-52
2022/05/08 01:13:05;;;;;;;0.40;0.30;;;;;;;12.58;95.75;100822.44;5016146;28;20487;-52
2022/05/08 01:15:42;;;;;;;1.07;1.07;;;;;;;12.44;96.61;100813.03;5012268;28;20499;-52
2022/05/08 01:18:12;;;;;;;0.30;0.30;;;;;;;12.55;96.93;100818.09;5012155;28;20488;-52
2022/05/08 01:20:44;;;;;;;0.93;0.93;;;;;;;12.48;97.18;100823.66;5012212;28;20459;-52
2022/05/08 01:23:11;;;;;;;0.30;0.30;;;;;;;12.45;97.37;100812.13;5008192;28;20518;-52
2022/05/08 01:25:46;;;;;;;0.30;0.30;;;;;;;12.44;97.56;100809.50;5011857;28;20448;-52
2022/05/08 01:28:13;;;;;;;0.93;0.67;;;;;;;12.36;98.04;100809.72;5003524;28;20505;-52
2022/05/08 01:30:41;;;;;;;0.37;0.27;;;;;;;12.35;98.13;100807.13;4994894;28;20506;-52
2022/05/08 01:33:09;;;;;;;0.30;0.20;;;;;;;12.37;97.79;100810.59;5011772;28;20881;-52
2022/05/08 01:35:36;;;;;;;0.40;0.37;;;;;;;12.51;97.59;100811.09;5012185;28;20476;-52
2022/05/08 01:38:04;;;;;;;0.40;0.30;;;;;;;12.45;98.26;100803.25;5011610;28;20525;-52
2022/05/08 01:40:31;;;;;;;0.40;0.33;;;;;;;12.56;97.31;100802.94;4999575;28;20486;-52
2022/05/08 01:42:58;;;;;;;0.67;0.67;;;;;;;12.60;97.12;100809.94;5011119;28;20515;-52
2022/05/08 01:45:25;;;;;;;0.30;0.20;;;;;;;12.56;97.55;100806.50;5001411;28;20965;-52
2022/05/08 01:50:38;;;;;;;0.30;0.20;;;;;;;12.45;97.42;100808.59;5015910;28;20459;-52
2022/05/08 01:53:05;;;;;;;0.40;0.40;;;;;;;12.60;97.45;100807.28;5010861;28;20532;-52
2022/05/08 01:55:32;;;;;;;0.30;0.20;;;;;;;12.54;99.71;100802.13;4999173;28;20485;-52
2022/05/08 01:57:59;;;;;;;0.77;0.37;;;;;;;12.48;100.00;100810.31;5013451;28;20916;-52
2022/05/08 02:00:26;;;;;;;0.30;0.20;;;;;;;12.51;98.87;100804.88;5015899;28;20522;-52
2022/05/08 02:02:53;;;;;;;0.40;0.30;;;;;;;12.38;98.33;100805.22;5015109;28;20586;-52
2022/05/08 02:05:21;;;;;;;3.27;1.70;;;;;;;12.35;98.27;100809.78;5015456;28;20981;-52
2022/05/08 02:07:49;;;;;;;0.40;0.30;;;;;;;12.36;98.35;100806.19;5002081;28;20453;-52
2022/05/08 02:10:17;;;;;;;0.37;0.27;;;;;;;12.12;99.31;100813.94;4998198;28;20527;-52
2022/05/08 02:12:45;;;;;;;0.30;0.20;;;;;;;12.19;99.75;100805.75;5005448;28;20480;-52
2022/05/08 02:15:12;;;;;;;0.30;0.20;;;;;;;11.90;100.00;100809.19;5015433;28;20875;-52
2022/05/08 02:17:39;;;;;;;0.30;0.20;;;;;;;11.81;100.00;100811.19;5015680;28;20498;-52
2022/05/08 02:20:08;;;;;;;0.30;0.20;;;;;;;12.03;100.00;100806.16;5015186;28;20546;-52
2022/05/08 02:22:36;;;;;;;0.30;0.20;;;;;;;11.98;100.00;100813.41;5045662;22;20503;-52
2022/05/08 02:25:05;;;;;;;0.30;0.20;;;;;;;11.93;100.00;100814.47;5044318;28;21067;-51
2022/05/08 02:27:41;;;;;;;0.30;0.20;;;;;;;12.14;100.00;100812.09;5041954;28;20481;-51
2022/05/08 02:30:11;;;;;;;0.30;0.20;;;;;;;12.12;100.00;100811.25;5055204;28;20461;-51
2022/05/08 02:32:38;;;;;;;0.30;0.20;;;;;;;12.25;100.00;100805.59;5049917;28;20464;-51
2022/05/08 02:35:07;;;;;;;0.30;0.20;;;;;;;12.23;100.00;100808.31;5046221;28;20458;-51
2022/05/08 02:37:33;;;;;;;0.40;0.30;;;;;;;12.37;99.28;100815.94;5036489;28;20476;-51
2022/05/08 02:40:00;;;;;;;0.30;0.20;;;;;;;12.27;100.00;100815.31;5034933;28;20487;-52
2022/05/08 02:42:28;;;;;;;0.50;0.47;;;;;;;12.01;100.00;100818.66;5035664;28;21002;-51
2022/05/08 02:44:54;;;;;;;0.30;0.20;;;;;;;12.05;100.00;100819.44;5046829;28;20504;-51
2022/05/08 02:47:21;;;;;;;0.40;0.40;;;;;;;12.01;100.00;100817.78;5049099;28;20447;-51
2022/05/08 02:49:48;;;;;;;0.97;0.50;;;;;;;12.14;99.41;100819.22;5034634;28;20460;-52
2022/05/08 02:52:14;;;;;;;0.30;0.20;;;;;;;11.85;100.00;100818.19;5021136;28;20479;-51
2022/05/08 02:54:41;;;;;;;0.30;0.20;;;;;;;11.86;100.00;100817.25;5041031;28;20513;-51
2022/05/08 02:59:53;;;;;;;0.70;0.70;;;;;;;11.93;100.00;100817.13;5049040;28;20529;-51
2022/05/08 03:02:21;;;;;;;0.30;0.20;;;;;;;11.82;100.00;100822.72;5046327;28;20475;-51
2022/05/08 03:04:48;;;;;;;0.57;0.57;;;;;;;11.81;100.00;100820.97;5035463;28;20454;-51
2022/05/08 03:07:14;;;;;;;0.30;0.20;;;;;;;11.73;100.00;100826.44;5042139;28;20469;-51
2022/05/08 03:09:41;;;;;;;0.30;0.20;;;;;;;11.45;100.00;100825.34;5026303;28;20514;-51
2022/05/08 03:12:08;;;;;;;0.40;0.30;;;;;;;11.32;100.00;100823.88;5033982;28;20867;-51
2022/05/08 03:14:36;;;;;;;0.40;0.40;;;;;;;11.47;100.00;100828.84;5034944;28;20486;-52
2022/05/08 03:17:03;;;;;;;0.40;0.30;;;;;;;11.36;100.00;100831.75;5046403;28;20487;-51
2022/05/08 03:19:30;;;;;;;0.30;0.20;;;;;;;11.49;100.00;100841.22;5045866;28;20536;-51
2022/05/08 03:21:57;;;;;;;1.37;1.33;;;;;;;11.40;100.00;100838.78;5027321;28;20863;-51
2022/05/08 03:24:24;;;;;;;0.30;0.20;;;;;;;11.40;100.00;100838.78;5038325;28;20494;-51
2022/05/08 03:26:51;;;;;;;0.40;0.40;;;;;;;11.52;100.00;100841.16;5045474;28;21018;-51
2022/05/08 03:29:17;;;;;;;0.30;0.20;;;;;;;11.34;100.00;100838.03;5046964;28;20884;-51
2022/05/08 03:31:44;;;;;;;0.40;0.30;;;;;;;11.52;100.00;100835.84;5033920;28;20984;-51
2022/05/08 03:34:10;;;;;;;0.30;0.20;;;;;;;11.18;100.00;100840.16;5033555;28;20455;-52
2022/05/08 03:36:37;;;;;;;1.43;1.43;;;;;;;11.19;100.00;100837.47;5042230;28;20447;-51
2022/05/08 03:39:04;;;;;;;0.30;0.20;;;;;;;11.35;100.00;100838.00;5039635;28;20918;-52
2022/05/08 03:41:30;;;;;;;0.30;0.20;;;;;;;11.16;100.00;100842.00;5042233;28;20502;-51
2022/05/08 03:43:57;;;;;;;0.40;0.37;;;;;;;11.24;100.00;100834.72;5024880;28;20449;-51
2022/05/08 03:46:23;;;;;;;0.30;0.20;;;;;;;11.41;100.00;100844.97;5042966;28;20454;-51
2022/05/08 03:48:51;;;;;;;0.30;0.20;;;;;;;11.63;100.00;100837.34;5039898;28;20448;-51
2022/05/08 03:51:18;;;;;;;0.30;0.20;;;;;;;11.07;100.00;100847.50;5052751;28;20820;-51
2022/05/08 03:53:44;;;;;;;0.30;0.20;;;;;;;11.17;100.00;100833.09;5053275;28;20869;-51
2022/05/08 03:56:11;;;;;;;3.13;1.07;;;;;;;11.10;100.00;100845.69;5043499;28;20544;-51
2022/05/08 03:58:37;;;;;;;0.37;0.30;;;;;;;11.08;100.00;100841.28;5033766;28;20443;-51
2022/05/08 04:01:05;;;;;;;1.13;1.13;;;;;;;11.24;100.00;100840.06;5043396;28;20455;-51
2022/05/08 04:03:31;;;;;;;0.40;0.30;;;;;;;11.24;100.00;100834.72;5048035;28;20456;-51
2022/05/08 04:05:58;;;;;;;0.30;0.20;;;;;;;11.36;100.00;100839.75;5022870;28;20520;-52
2022/05/08 04:08:25;;;;;;;0.80;0.70;;;;;;;11.46;100.00;100841.28;5035337;28;20509;-52
2022/05/08 04:10:51;;;;;;;0.40;0.30;;;;;;;11.33;100.00;100845.16;5042615;28;20505;-51
2022/05/08 04:13:18;;;;;;;2.47;0.97;;;;;;;11.32;100.00;100854.03;5036919;28;20474;-51
2022/05/08 04:18:31;;;;;;;2.50;1.33;;;;;;;11.44;100.00;100864.41;5025009;28;20513;-51
2022/05/08 04:20:58;;;;;;;0.50;0.50;;;;;;;11.45;100.00;100865.28;5039981;28;20452;-51
2022/05/08 04:26:09;;;;;;;0.40;0.30;;;;;;;12.07;100.00;100857.63;5035360;28;20447;-51
2022/05/08 04:28:36;;;;;;;0.30;0.20;;;;;;;12.00;100.00;100858.66;5035140;28;20508;-51
2022/05/08 04:31:03;;;;;;;0.30;0.20;;;;;;;11.88;100.00;100853.63;5035983;28;20498;-51
2022/05/08 04:33:29;;;;;;;0.40;0.30;;;;;;;12.03;100.00;100866.56;5052314;28;20504;-51
2022/05/08 04:35:56;;;;;;;0.30;0.20;;;;;;;11.97;100.00;100861.41;5025749;28;20514;-51
2022/05/08 04:38:22;;;;;;;0.30;0.20;;;;;;;12.04;100.00;100871.00;5042914;28;20456;-51
2022/05/08 04:40:49;;;;;;;0.40;0.30;;;;;;;12.19;100.00;100872.38;5045664;28;20491;-51
2022/05/08 04:43:16;;;;;;;0.30;0.20;;;;;;;12.14;100.00;100873.38;5032583;28;20475;-51
2022/05/08 04:45:42;;;;;;;0.40;0.30;;;;;;;12.55;100.00;100879.41;5049277;28;20501;-51
2022/05/08 04:48:09;;;;;;;0.70;0.70;;;;;;;13.19;100.00;100882.09;5038762;28;20452;-52
2022/05/08 04:50:36;;;;;;;0.93;0.93;;;;;;;13.61;98.97;100872.75;5045940;28;20471;-52
2022/05/08 04:53:02;;;;;;;1.07;1.07;;;;;;;14.34;95.81;100879.25;5031930;28;20468;-52
2022/05/08 04:55:29;;;;;;;0.40;0.30;;;;;;;14.74;93.68;100870.72;5045664;28;20483;-52
2022/05/08 04:57:55;;;;;;;0.30;0.30;;;;;;;15.10;92.25;100880.09;5042915;28;20521;-52
2022/05/08 05:00:22;;;;;;;0.40;0.30;;;;;;;15.18;91.00;100877.09;5034893;28;20514;-52
2022/05/08 05:02:49;;;;;;;4.70;3.07;;;;;;;15.21;89.76;100886.81;5042486;28;20471;-52
2022/05/08 05:05:16;;;;;;;0.30;0.20;;;;;;;15.35;89.13;100885.38;5034868;28;20448;-52
2022/05/08 05:07:42;;;;;;;0.63;0.63;;;;;;;15.68;88.78;100883.19;5031855;28;20459;-52
2022/05/08 05:10:10;;;;;;;0.30;0.20;;;;;;;15.79;88.60;100884.59;5041398;28;20447;-51
2022/05/08 05:12:38;;;;;;;0.40;0.30;;;;;;;16.18;87.63;100887.44;5036586;28;20525;-52
2022/05/08 05:15:06;;;;;;;1.17;1.07;;;;;;;16.10;88.38;100886.88;5031285;28;20510;-52
2022/05/08 05:17:33;;;;;;;2.10;1.43;;;;;;;16.23;87.52;100894.34;5031799;28;20492;-52
2022/05/08 05:20:00;;;;;;;3.50;0.90;;;;;;;16.32;85.65;100895.78;5033098;28;20869;-52
2022/05/08 05:22:27;;;;;;;0.40;0.20;;;;;;;16.37;85.45;100892.88;5039055;28;20574;-52
2022/05/08 05:24:57;;;;;;;0.83;0.40;;;;;;;16.55;85.39;100900.13;5042321;28;20502;-52
2022/05/08 05:27:24;;;;;;;0.40;0.40;;;;;;;16.63;85.11;100906.03;5032137;28;20861;-52
2022/05/08 05:29:52;;;;;;;0.40;0.20;;;;;;;16.68;85.58;100900.50;5035268;28;20500;-52
2022/05/08 05:32:19;;;;;;;0.40;0.20;;;;;;;16.86;84.83;100905.06;5040082;28;20471;-52
2022/05/08 05:34:45;;;;;;;1.33;1.07;;;;;;;16.77;85.05;100909.03;5039691;28;20943;-52
2022/05/08 05:37:12;;;;;;;0.87;0.87;;;;;;;16.79;85.71;100917.88;5034894;28;20824;-53
2022/05/08 05:39:38;;;;;;;0.50;0.47;;;;;;;17.10;84.06;100916.50;5043578;28;20584;-53
2022/05/08 05:42:08;;;;;;;0.60;0.60;;;;;;;17.21;82.87;100919.56;5032097;28;20472;-54
2022/05/08 05:44:35;;;;;;;0.63;0.63;;;;;;;17.40;82.94;100917.78;5032737;28;20529;-53
2022/05/08 05:49:47;;;;;;;0.40;0.20;;;;;;;17.59;82.46;100915.09;5046224;28;20485;-53
2022/05/08 05:52:13;;;;;;;2.67;2.00;;;;;;;17.51;83.20;100919.09;5044730;28;20522;-53
2022/05/08 05:54:40;;;;;;;0.40;0.20;;;;;;;17.93;81.98;100918.88;5035142;28;20992;-53
2022/05/08 05:57:07;;;;;;;0.40;0.20;;;;;;;17.94;82.47;100918.81;5038852;28;20459;-53
2022/05/08 05:59:33;;;;;;;1.03;1.03;;;;;;;18.40;80.65;100915.66;5036777;28;20529;-54
2022/05/08 06:02:07;;;;;;;0.70;0.70;;;;;;;18.68;79.41;100921.41;5036424;28;21080;-54
2022/05/08 06:04:34;;;;;;;0.43;0.37;;;;;;;18.55;79.12;100923.81;5049294;28;20517;-53
2022/05/08 06:07:01;;;;;;;0.40;0.40;;;;;;;18.68;79.56;100923.22;5035518;28;20486;-54
2022/05/08 06:09:28;;;;;;;0.80;0.80;;;;;;;18.70;79.17;100924.00;5043764;28;20451;-53
2022/05/08 06:11:54;;;;;;;2.63;2.30;;;;;;;18.48;80.29;100932.28;5034082;28;20901;-54
2022/05/08 06:14:21;;;;;;;0.57;0.57;;;;;;;18.50;79.21;100924.97;5030617;28;20502;-54
2022/05/08 06:16:47;;;;;;;2.10;2.00;;;;;;;18.62;79.20;100930.59;5038317;28;20485;-53
2022/05/08 06:19:14;;;;;;;1.50;1.43;;;;;;;18.67;80.76;100933.13;5030139;28;21819;-54
2022/05/08 06:21:41;;;;;;;0.40;0.30;;;;;;;18.39;80.08;100946.22;5041750;28;20539;-54
2022/05/08 06:24:08;;;;;;;0.70;0.70;;;;;;;18.99;78.75;100933.25;5032342;28;20452;-53
2022/05/08 06:26:34;;;;;;;0.40;0.30;;;;;;;18.68;78.96;100942.94;5032029;28;20466;-54
2022/05/08 06:29:01;;;;;;;0.70;0.70;;;;;;;18.81;78.33;100940.47;5031009;28;20969;-54
2022/05/08 06:31:28;;;;;;;0.40;0.20;;;;;;;19.09;76.92;100938.06;5039314;28;20475;-54
2022/05/08 06:33:54;;;;;;;1.27;1.27;;;;;;;19.05;77.37;100947.28;5040598;28;20458;-54
2022/05/08 06:36:22;;;;;;;0.40;0.20;;;;;;;19.20;75.67;100941.06;5041555;28;20508;-53
2022/05/08 06:38:48;;;;;;;0.40;0.20;;;;;;;18.99;77.55;100952.97;5051486;28;20513;-53
2022/05/08 06:41:15;;;;;;;3.03;2.83;;;;;;;18.93;75.72;100958.69;5035220;28;20494;-53
2022/05/08 06:43:42;;;;;;;0.40;0.30;;;;;;;19.02;76.74;100950.13;5035904;28;20456;-53
2022/05/08 06:46:08;;;;;;;0.40;0.20;;;;;;;18.79;77.26;100959.44;5042355;28;20459;-53
2022/05/08 06:48:35;;;;;;;0.43;0.37;;;;;;;19.18;76.50;100960.94;5053308;28;20501;-53
2022/05/08 06:51:03;;;;;;;0.50;0.50;;;;;;;19.34;74.46;100948.41;5033883;28;20481;-53
2022/05/08 06:53:31;;;;;;;0.67;0.57;;;;;;;18.99;75.12;100960.19;5035409;28;20448;-53
2022/05/08 06:55:57;;;;;;;8.43;0.90;;;;;;;18.92;76.26;100951.56;5043207;28;20450;-53
2022/05/08 06:58:24;;;;;;;2.40;1.53;;;;;;;19.13;75.71;100953.13;5045141;28;20453;-53
2022/05/08 07:03:37;;;;;;;0.40;0.20;;;;;;;18.85;75.80;100958.22;5035994;28;20455;-53
2022/05/08 07:06:03;;;;;;;0.40;0.30;;;;;;;18.87;77.73;100953.63;5032865;28;20452;-53
2022/05/08 07:08:30;;;;;;;0.83;0.83;;;;;;;18.91;75.25;100955.19;5042593;28;20451;-53
2022/05/08 07:10:57;;;;;;;0.47;0.40;;;;;;;19.10;76.78;100958.69;5035479;28;20448;-53
2022/05/08 07:13:26;;;;;;;0.50;0.50;;;;;;;19.12;74.09;100954.06;5036114;28;20532;-53
2022/05/08 07:15:53;;;;;;;0.50;0.50;;;;;;;19.34;74.38;100948.41;5040026;28;20460;-53
2022/05/08 07:18:25;;;;;;;0.40;0.20;;;;;;;19.19;73.87;100958.19;5047140;28;20513;-53
2022/05/08 07:20:52;;;;;;;0.40;0.20;;;;;;;19.50;73.86;100962.78;5041625;28;20495;-53
2022/05/08 07:23:19;;;;;;;0.70;0.60;;;;;;;19.68;71.33;100954.66;5039845;28;20475;-53
2022/05/08 07:25:45;;;;;;;0.87;0.87;;;;;;;19.17;73.07;100962.78;5046661;28;20462;-53
2022/05/08 07:28:12;;;;;;;0.40;0.20;;;;;;;19.47;73.21;100960.25;5035498;28;20851;-53
2022/05/08 07:30:39;;;;;;;1.27;1.17;;;;;;;19.80;72.95;100960.25;5045214;28;20869;-53
2022/05/08 07:33:05;;;;;;;0.50;0.40;;;;;;;19.55;72.90;100965.25;5035789;28;20472;-53
2022/05/08 07:38:24;;;;;;;0.40;0.20;;;;;;;19.63;72.07;100968.41;5031662;28;20460;-53
2022/05/08 07:40:58;;;;;;;0.50;0.50;;;;;;;19.61;71.79;100967.63;5032703;28;20491;-53
2022/05/08 07:43:25;;;;;;;0.50;0.50;;;;;;;19.56;71.51;100963.44;5031374;28;20472;-52
2022/05/08 07:45:52;;;;;;;0.40;0.30;;;;;;;19.64;72.22;100971.97;5047034;28;20482;-53
2022/05/08 07:48:19;;;;;;;0.40;0.20;;;;;;;19.53;72.74;100976.09;5045038;28;20964;-52
2022/05/08 07:50:46;;;;;;;0.40;0.30;;;;;;;19.97;72.78;100971.91;5035190;28;20866;-52
2022/05/08 07:53:19;;;;;;;0.50;0.30;;;;;;;19.48;72.15;100974.63;5046302;28;20467;-53
2022/05/08 07:55:51;;;;;;;0.40;0.30;;;;;;;19.48;72.32;100972.78;5039605;28;20497;-53
2022/05/08 07:58:20;;;;;;;0.40;0.20;;;;;;;19.49;72.44;100970.97;5039982;28;20444;-53
2022/05/08 08:00:49;;;;;;;0.40;0.30;;;;;;;19.86;71.31;100979.72;5045206;28;20911;-53
2022/05/08 08:03:17;;;;;;;0.40;0.20;;;;;;;19.79;72.17;100974.69;5046401;28;20467;-53
2022/05/08 08:05:44;;;;;;;0.40;0.20;;;;;;;19.51;73.41;100971.75;5033121;28;20459;-53
2022/05/08 08:08:31;;;;;;;0.60;0.53;;;;;;;20.07;72.40;100981.22;5046646;28;20792;-53
2022/05/08 08:11:01;;;;;;;1.60;1.50;;;;;;;19.98;71.37;100973.66;5042220;28;20504;-53
2022/05/08 08:13:29;;;;;;;0.50;0.30;;;;;;;20.02;71.10;100977.94;5019541;28;20823;-52
2022/05/08 08:15:56;;;;;;;0.40;0.20;;;;;;;19.78;71.98;100980.19;5033137;28;20448;-53
2022/05/08 08:18:23;;;;;;;0.50;0.50;;;;;;;19.92;72.67;100984.81;5046207;28;20459;-53
2022/05/08 08:20:50;;;;;;;0.40;0.30;;;;;;;20.22;71.72;100984.88;5040064;28;20498;-53
2022/05/08 08:23:17;;;;;;;0.50;0.40;;;;;;;20.12;71.13;100985.41;5033802;22;20496;-78
2022/05/08 08:25:44;;;;;;;0.50;0.30;;;;;;;20.59;71.38;100983.66;5001726;28;20457;-79
2022/05/08 08:28:11;;;;;;;0.40;0.20;;;;;;;20.40;71.55;100984.69;5017608;28;20440;-79
2022/05/08 08:30:38;;;;;;;1.27;0.70;;;;;;;20.26;70.13;100979.22;5023002;28;20483;-79
2022/05/08 08:33:04;;;;;;;0.60;0.57;;;;;;;20.25;70.73;100982.00;5034021;28;21020;-79
2022/05/08 08:35:31;;;;;;;0.50;0.50;;;;;;;20.38;70.86;100991.13;5036317;28;20460;-79
2022/05/08 08:37:58;;;;;;;0.40;0.30;;;;;;;20.24;71.11;100989.22;5031625;28;20690;-78
2022/05/08 08:40:25;;;;;;;0.40;0.30;;;;;;;20.02;71.83;100989.59;5012524;28;20500;-77
2022/05/08 08:42:52;;;;;;;0.40;0.20;;;;;;;20.20;70.53;100990.38;5029126;28;20958;-77
2022/05/08 08:48:11;;;;;;;0.40;0.30;;;;;;;20.68;70.15;100993.91;5003846;28;20510;-78
2022/05/08 08:50:38;;;;;;;1.83;1.33;;;;;;;20.38;71.03;100985.72;5014229;28;20464;-77
2022/05/08 08:53:05;;;;;;;0.80;0.80;;;;;;;20.49;70.98;100988.72;5014512;28;20511;-78
2022/05/08 08:55:33;;;;;;;0.60;0.60;;;;;;;20.43;71.58;100985.53;5014380;28;20453;-78
2022/05/08 08:58:00;;;;;;;0.40;0.30;;;;;;;20.77;70.28;100985.25;5030466;28;20456;-78
2022/05/08 09:00:27;;;;;;;0.40;0.40;;;;;;;20.53;69.29;100989.41;5030150;28;20497;-78
2022/05/08 09:02:55;;;;;;;0.40;0.20;;;;;;;20.53;70.29;100989.41;5013100;28;20892;-77
2022/05/08 09:05:25;;;;;;;0.40;0.20;;;;;;;20.48;69.81;100983.41;5009553;28;20457;-78
2022/05/08 09:07:53;;;;;;;3.57;2.97;;;;;;;20.68;69.93;100991.19;5005757;28;20499;-78
2022/05/08 09:10:22;;;;;;;0.60;0.60;;;;;;;20.68;69.30;100983.97;5013490;28;20476;-78
2022/05/08 09:12:51;;;;;;;2.90;1.20;;;;;;;21.07;69.27;100992.47;5013408;28;20460;-78
2022/05/08 09:15:22;;;;;;;0.40;0.20;;;;;;;20.63;68.64;100985.22;5001504;28;20456;-78
2022/05/08 09:17:51;;;;;;;0.50;0.30;;;;;;;21.19;67.57;100991.72;5029133;28;20487;-78
2022/05/08 09:20:40;;;;;;;0.40;0.20;;;;;;;21.40;67.42;100987.72;5014286;28;20575;-77
2022/05/08 09:23:09;;;;;;;0.40;0.20;;;;;;;21.05;67.92;100984.47;5013306;28;20452;-78
2022/05/08 09:25:59;;;;;;;2.20;2.10;;;;;;;20.99;68.40;100985.72;5014990;28;20468;-78
2022/05/08 09:28:40;;;;;;;0.70;0.70;;;;;;;21.40;67.78;100987.72;5028285;28;20499;-77
2022/05/08 09:31:18;;;;;;;0.50;0.40;;;;;;;21.20;66.71;100982.63;5029303;28;20460;-78
2022/05/08 09:33:51;;;;;;;0.60;0.60;;;;;;;21.54;67.10;100989.56;5029758;28;20464;-78
2022/05/08 09:36:22;;;;;;;0.40;0.20;;;;;;;22.00;66.21;100981.22;5029061;28;20444;-78
2022/05/08 09:38:51;;;;;;;1.90;1.80;;;;;;;21.68;65.45;100984.16;5013708;28;20453;-78
2022/05/08 09:41:21;;;;;;;1.07;0.97;;;;;;;21.61;66.35;100971.97;5016878;28;20887;-78
2022/05/08 09:43:50;;;;;;;0.60;0.60;;;;;;;21.87;65.55;100973.88;5029114;28;20453;-78
2022/05/08 09:46:17;;;;;;;2.20;2.00;;;;;;;21.85;65.88;100966.84;5013182;28;21019;-78
2022/05/08 09:48:44;;;;;;;4.10;1.80;;;;;;;21.85;66.58;100967.69;5028827;28;20460;-78
2022/05/08 09:51:13;;;;;;;0.60;0.60;;;;;;;22.01;64.73;100964.00;5014328;28;20523;-78
2022/05/08 09:53:41;;;;;;;0.50;0.30;;;;;;;22.24;64.57;100970.66;5014498;28;20453;-78
2022/05/08 09:56:09;;;;;;;1.27;0.80;;;;;;;22.69;63.17;100967.53;5013890;28;20453;-78
2022/05/08 09:58:39;;;;;;;3.53;1.17;;;;;;;21.95;63.89;100964.41;5030004;28;20503;-78
2022/05/08 10:01:09;;;;;;;0.40;0.30;;;;;;;22.05;65.24;100970.94;5014489;28;20488;-78
2022/05/08 10:03:36;;;;;;;0.50;0.40;;;;;;;21.97;64.17;100951.63;5030571;28;20449;-78
2022/05/08 10:06:03;;;;;;;3.37;1.60;;;;;;;22.03;64.61;100957.50;5016156;28;20445;-78
2022/05/08 10:08:34;;;;;;;0.40;0.30;;;;;;;22.02;64.94;100958.47;5019138;28;20858;-78
2022/05/08 10:13:57;;;;;;;1.07;0.33;;;;;;;22.57;62.96;100962.94;5008385;28;20456;-78
2022/05/08 10:17:02;;;;;;;1.17;1.17;;;;;;;22.52;62.60;100958.81;5034360;28;20978;-77
2022/05/08 10:19:29;;;;;;;0.40;0.23;;;;;;;22.44;61.04;100957.50;5017848;28;20938;-77
2022/05/08 10:24:39;;;;;;;0.50;0.50;;;;;;;22.91;58.19;100957.97;5018810;28;20506;-78
2022/05/08 10:27:15;;;;;;;0.50;0.40;;;;;;;22.45;60.05;100963.78;5017410;28;20811;-78
2022/05/08 10:29:49;;;;;;;0.40;0.30;;;;;;;22.55;60.49;100950.47;5033056;28;20448;-78
2022/05/08 10:32:28;;;;;;;0.67;0.67;;;;;;;22.27;60.80;100954.19;5018713;28;20491;-78
2022/05/08 10:35:25;;;;;;;1.53;0.50;;;;;;;22.35;61.44;100958.13;5018472;28;20487;-78
2022/05/08 10:38:16;;;;;;;0.60;0.50;;;;;;;23.06;59.53;100951.47;5021008;28;20440;-78
2022/05/08 10:40:43;;;;;;;0.80;0.77;;;;;;;22.71;58.81;100962.88;5033975;28;20496;-78
2022/05/08 10:43:12;;;;;;;0.50;0.40;;;;;;;22.38;60.18;100957.91;5018271;28;20487;-78
2022/05/08 10:45:42;;;;;;;0.50;0.50;;;;;;;22.06;62.59;100953.75;5034046;28;20457;-78
2022/05/08 10:48:10;;;;;;;0.50;0.40;;;;;;;21.98;61.75;100948.81;5018834;28;21161;-78
2022/05/08 10:50:39;;;;;;;0.40;0.20;;;;;;;22.28;62.07;100945.94;5017878;28;20878;-78
2022/05/08 10:53:06;;;;;;;0.50;0.50;;;;;;;22.39;60.57;100939.81;5016939;28;20495;-78
2022/05/08 10:55:33;;;;;;;2.53;2.33;;;;;;;22.62;60.48;100939.13;5032426;28;20452;-78
2022/05/08 10:58:00;;;;;;;0.40;0.30;;;;;;;22.93;59.28;100937.03;5017052;28;20498;-78
2022/05/08 11:00:29;;;;;;;0.60;0.60;;;;;;;22.74;59.74;100934.69;5016898;28;20882;-78
2022/05/08 11:02:58;;;;;;;0.40;0.30;;;;;;;23.26;60.31;100929.22;5034075;28;20456;-78
2022/05/08 11:05:33;;;;;;;0.53;0.53;;;;;;;22.83;58.90;100941.34;5030757;28;20441;-78
2022/05/08 11:08:05;;;;;;;1.53;1.53;;;;;;;23.13;60.17;100928.34;5034137;28;20448;-78
2022/05/08 11:10:33;;;;;;;0.40;0.20;;;;;;;23.20;57.97;100935.09;5023501;28;20506;-78
2022/05/08 11:13:00;;;;;;;0.70;0.50;;;;;;;23.31;58.18;100935.22;5027907;28;20468;-78
2022/05/08 11:15:36;;;;;;;0.50;0.30;;;;;;;22.87;58.94;100929.31;5032991;28;20453;-78
2022/05/08 11:18:14;;;;;;;1.80;1.17;;;;;;;22.87;59.50;100932.03;5016935;28;20527;-78
2022/05/08 11:20:57;;;;;;;0.40;0.30;;;;;;;23.06;60.03;100927.06;5031066;28;20886;-77
2022/05/08 11:23:26;;;;;;;0.40;0.20;;;;;;;22.69;58.67;100932.31;5014788;28;20473;-78
2022/05/08 11:25:55;;;;;;;0.50;0.50;;;;;;;22.86;59.33;100924.88;5017436;28;20526;-78
2022/05/08 11:28:24;;;;;;;0.50;0.50;;;;;;;22.97;60.86;100928.56;5016786;28;20465;-78
2022/05/08 11:30:52;;;;;;;0.50;0.30;;;;;;;22.75;61.83;100922.88;5016458;28;20469;-78
2022/05/08 11:36:22;;;;;;;0.50;0.33;;;;;;;23.04;60.63;100921.75;5018781;28;20976;-78
2022/05/08 11:38:56;;;;;;;0.40;0.30;;;;;;;23.32;60.09;100920.66;5017352;28;20813;-77
2022/05/08 11:41:33;;;;;;;0.50;0.40;;;;;;;23.14;58.73;100921.97;5020268;28;20863;-78
2022/05/08 11:44:23;;;;;;;0.50;0.30;;;;;;;23.28;60.51;100921.84;5032860;28;20467;-78
2022/05/08 11:46:58;;;;;;;0.50;0.30;;;;;;;23.97;59.00;100913.25;5015247;28;20500;-78
2022/05/08 11:49:24;;;;;;;0.60;0.47;;;;;;;23.75;58.99;100912.16;5018703;28;20478;-78
2022/05/08 11:51:53;;;;;;;0.40;0.30;;;;;;;23.29;58.52;100911.84;5015894;28;20970;-78
2022/05/08 11:54:20;;;;;;;0.53;0.53;;;;;;;23.15;59.76;100910.13;5031196;28;20495;-77
2022/05/08 11:56:47;;;;;;;0.40;0.30;;;;;;;23.07;59.88;100907.09;5032444;28;20471;-77
2022/05/08 11:59:22;;;;;;;0.40;0.20;;;;;;;23.05;59.48;100918.06;5015840;28;20453;-78
2022/05/08 12:01:51;;;;;;;0.40;0.30;;;;;;;22.86;60.60;100906.75;5016237;28;20518;-78